Time;durP1;ratioP1;P1;durP2;ratioP2;P2;SDS_P1;SDS_P2;PMS_P1;PMS_P2;Temp;Humidity;BMP_temperature;BMP_pressure;BME280_temperature;BME280_humidity;BME280_pressure;Samples;Min_cycle;Max_cycle;Signal;HPM_P1;HPM_P2
2024/04/05 00:00:46;;;;;;;5.80;0.63;;;11.90;99.90;;;;;;5010888;28;20037;-74
2024/04/05 00:03:12;;;;;;;3.80;0.60;;;11.90;99.90;;;;;;5010908;28;20084;-73
2024/04/05 00:05:37;;;;;;;;;;;12.00;99.90;;;;;;5011203;28;20029;-75
2024/04/05 00:08:03;;;;;;;2.95;0.77;;;12.10;99.90;;;;;;5010964;28;19988;-75
2024/04/05 00:10:29;;;;;;;3.38;0.60;;;12.00;99.90;;;;;;5025968;28;20053;-74
2024/04/05 00:12:55;;;;;;;;;;;12.10;99.90;;;;;;5011191;28;20030;-76
2024/04/05 00:15:21;;;;;;;1.98;0.57;;;12.00;99.90;;;;;;5009575;28;19916;-75
2024/04/05 00:17:47;;;;;;;;;;;12.10;99.90;;;;;;5011083;28;20022;-74
2024/04/05 00:20:13;;;;;;;2.22;0.73;;;12.10;99.90;;;;;;5010522;28;20016;-73
2024/04/05 00:22:39;;;;;;;1.70;0.50;;;12.00;99.90;;;;;;5025731;28;20398;-73
2024/04/05 00:25:04;;;;;;;;;;;12.10;99.90;;;;;;5009773;28;20578;-75
2024/04/05 00:27:30;;;;;;;1.25;0.40;;;12.00;99.90;;;;;;5011056;28;19905;-76
2024/04/05 00:29:56;;;;;;;;;;;12.00;99.90;;;;;;5011092;28;20386;-74
2024/04/05 00:32:22;;;;;;;0.95;0.40;;;12.00;99.90;;;;;;5010741;28;19912;-73
2024/04/05 00:34:47;;;;;;;;;;;12.00;99.90;;;;;;5010843;28;20061;-76
2024/04/05 00:37:14;;;;;;;1.35;0.30;;;12.00;99.90;;;;;;5010136;28;19905;-72
2024/04/05 00:39:40;;;;;;;1.10;0.30;;;11.90;99.90;;;;;;5008992;28;20029;-75
2024/04/05 00:42:05;;;;;;;;;;;11.90;99.90;;;;;;5009344;28;20030;-75
2024/04/05 00:44:31;;;;;;;1.42;0.68;;;11.90;99.90;;;;;;5010308;28;19997;-75
2024/04/05 00:46:58;;;;;;;;;;;11.90;99.90;;;;;;5010616;28;20129;-73
2024/04/05 00:49:27;;;;;;;3.03;0.20;;;11.90;99.90;;;;;;5024805;28;19931;-73
2024/04/05 00:51:56;;;;;;;2.50;0.40;;;11.90;99.90;;;;;;5010292;28;20057;-73
2024/04/05 00:54:23;;;;;;;2.15;0.30;;;11.90;99.90;;;;;;5009943;28;20029;-72
2024/04/05 00:56:48;;;;;;;2.28;0.30;;;11.90;99.90;;;;;;5008692;28;20029;-74
2024/04/05 00:59:15;;;;;;;;;;;11.80;99.90;;;;;;5025433;28;20061;-74
2024/04/05 01:01:44;;;;;;;2.00;0.55;;;11.80;99.90;;;;;;5025110;28;20382;-75
2024/04/05 01:04:10;;;;;;;1.70;0.28;;;11.70;99.90;;;;;;5009901;28;20168;-74
2024/04/05 01:06:37;;;;;;;0.80;0.30;;;11.70;99.90;;;;;;5008464;28;20120;-75
2024/04/05 01:09:06;;;;;;;0.88;0.20;;;11.70;99.90;;;;;;5009896;28;20042;-74
2024/04/05 01:11:32;;;;;;;1.17;0.40;;;11.70;99.90;;;;;;5008584;28;20069;-74
2024/04/05 01:13:58;;;;;;;0.93;0.30;;;11.60;99.90;;;;;;5009881;28;20056;-73
2024/04/05 01:16:24;;;;;;;;;;;11.60;99.90;;;;;;5008838;28;20033;-74
2024/04/05 01:18:52;;;;;;;1.85;0.30;;;11.50;99.90;;;;;;5024625;28;21958;-73
2024/04/05 01:21:20;;;;;;;1.27;0.30;;;11.50;99.90;;;;;;5008544;28;20040;-76
2024/04/05 01:23:46;;;;;;;0.93;0.25;;;11.50;99.90;;;;;;5009747;28;20544;-74
2024/04/05 01:26:11;;;;;;;;;;;11.50;99.90;;;;;;5010196;28;20030;-75
2024/04/05 01:28:37;;;;;;;1.00;0.20;;;11.40;99.90;;;;;;5009839;28;20325;-74
2024/04/05 01:31:03;;;;;;;;;;;11.40;99.90;;;;;;5008753;28;20037;-72
2024/04/05 01:33:28;;;;;;;0.50;0.20;;;11.30;99.90;;;;;;5009511;28;19915;-74
2024/04/05 01:35:54;;;;;;;;;;;11.30;99.90;;;;;;5008823;28;20034;-74
2024/04/05 01:38:20;;;;;;;1.25;0.20;;;11.20;99.90;;;;;;5009669;28;19996;-74
2024/04/05 01:40:45;;;;;;;;;;;11.20;99.90;;;;;;5009955;28;20045;-73
2024/04/05 01:43:11;;;;;;;0.35;0.20;;;11.20;99.90;;;;;;5009522;28;19910;-74
2024/04/05 01:45:36;;;;;;;;;;;11.10;99.90;;;;;;5009864;28;20040;-74
2024/04/05 01:48:02;;;;;;;2.05;0.30;;;11.10;99.90;;;;;;5024782;28;19968;-75
2024/04/05 01:50:28;;;;;;;4.22;0.20;;;11.00;99.90;;;;;;5008015;28;20033;-75
2024/04/05 01:52:53;;;;;;;;;;;10.90;99.90;;;;;;5009897;28;20037;-74
2024/04/05 01:55:19;;;;;;;0.52;0.20;;;10.90;99.90;;;;;;5024950;28;20355;-74
2024/04/05 01:57:44;;;;;;;;;;;10.90;99.90;;;;;;5009884;28;20026;-74
2024/04/05 02:00:10;;;;;;;1.25;0.20;;;10.90;99.90;;;;;;5024383;28;20478;-74
2024/04/05 02:02:36;;;;;;;1.98;0.20;;;10.80;99.90;;;;;;5010783;28;20026;-73
2024/04/05 02:05:03;;;;;;;;;;;10.80;99.90;;;;;;5028759;28;20036;-74
2024/04/05 02:07:29;;;;;;;0.20;0.10;;;10.90;99.90;;;;;;5013045;28;19931;-75
2024/04/05 02:09:54;;;;;;;;;;;10.80;99.90;;;;;;5013525;28;20426;-74
2024/04/05 02:12:21;;;;;;;0.20;0.20;;;10.70;99.90;;;;;;5011931;28;19905;-74
2024/04/05 02:14:47;;;;;;;0.50;0.20;;;10.80;99.90;;;;;;5013160;28;20033;-73
2024/04/05 02:17:13;;;;;;;;;;;10.80;99.90;;;;;;5012162;28;20028;-74
2024/04/05 02:19:39;;;;;;;1.65;0.20;;;10.80;99.90;;;;;;5027773;28;19921;-74
2024/04/05 02:22:05;;;;;;;2.47;0.20;;;10.80;99.90;;;;;;5012871;28;20060;-74
2024/04/05 02:24:31;;;;;;;1.58;0.35;;;10.80;99.90;;;;;;5011431;28;20068;-74
2024/04/05 02:26:57;;;;;;;2.63;0.10;;;10.70;99.90;;;;;;5027928;28;20030;-74
2024/04/05 02:29:23;;;;;;;;;;;10.70;99.90;;;;;;5012094;28;20041;-74
2024/04/05 02:31:48;;;;;;;0.22;0.10;;;10.70;99.90;;;;;;5012598;28;19905;-74
2024/04/05 02:34:14;;;;;;;;;;;10.60;99.90;;;;;;5013049;28;20033;-74
2024/04/05 02:36:40;;;;;;;3.00;0.40;;;10.60;99.90;;;;;;5011608;28;19959;-74
2024/04/05 02:39:06;;;;;;;;;;;10.50;99.90;;;;;;5011617;28;20026;-73
2024/04/05 02:41:32;;;;;;;1.27;0.30;;;10.40;99.90;;;;;;5027751;28;20000;-74
2024/04/05 02:43:58;;;;;;;0.80;0.22;;;10.30;99.90;;;;;;5010970;28;20022;-73
2024/04/05 02:46:23;;;;;;;;;;;10.20;99.90;;;;;;5012903;28;20053;-74
2024/04/05 02:48:49;;;;;;;0.73;0.20;;;10.20;99.90;;;;;;5028111;28;19912;-73
2024/04/05 02:51:15;;;;;;;;;;;10.10;99.90;;;;;;5012748;28;20025;-74
2024/04/05 02:53:40;;;;;;;1.75;0.20;;;10.10;99.90;;;;;;5011818;28;19944;-74
2024/04/05 02:56:06;;;;;;;;;;;10.10;99.90;;;;;;5028115;28;20501;-74
2024/04/05 02:58:32;;;;;;;1.08;0.40;;;10.00;99.90;;;;;;5012156;28;20416;-73
2024/04/05 03:00:57;;;;;;;;;;;9.90;99.90;;;;;;5027743;28;20483;-74
2024/04/05 03:03:23;;;;;;;0.88;0.20;;;9.90;99.90;;;;;;5010761;28;19937;-74
2024/04/05 03:05:49;;;;;;;;;;;9.80;99.90;;;;;;5012761;28;20045;-74
2024/04/05 03:08:15;;;;;;;2.92;0.30;;;9.80;99.90;;;;;;5012215;28;19913;-74
2024/04/05 03:10:41;;;;;;;0.80;0.20;;;9.70;99.90;;;;;;5010882;28;20120;-76
2024/04/05 03:13:07;;;;;;;;;;;9.70;99.90;;;;;;5011023;28;20467;-74
2024/04/05 03:15:34;;;;;;;1.67;0.30;;;9.60;99.90;;;;;;5027463;28;19917;-74
2024/04/05 03:17:59;;;;;;;0.45;0.20;;;9.60;99.90;;;;;;5012272;28;20037;-73
2024/04/05 03:20:25;;;;;;;;;;;9.50;99.90;;;;;;5012460;28;20038;-74
2024/04/05 03:22:52;;;;;;;0.20;0.20;;;9.40;99.90;;;;;;5016494;28;20382;-76
2024/04/05 03:25:18;;;;;;;1.77;0.30;;;9.40;99.90;;;;;;5015773;28;20021;-72
2024/04/05 03:27:44;;;;;;;;;;;9.30;99.90;;;;;;5011183;28;20514;-72
2024/04/05 03:30:10;;;;;;;2.35;0.20;;;9.30;99.90;;;;;;5011921;28;20012;-74
2024/04/05 03:32:35;;;;;;;;;;;9.20;99.90;;;;;;5012022;28;20033;-73
2024/04/05 03:35:02;;;;;;;0.82;0.20;;;9.10;99.90;;;;;;5010452;28;19909;-73
2024/04/05 03:37:28;;;;;;;0.55;0.17;;;9.10;99.90;;;;;;5026501;28;20406;-74
2024/04/05 03:39:54;;;;;;;;;;;9.10;99.90;;;;;;5010506;28;20053;-73
2024/04/05 03:42:20;;;;;;;1.27;0.10;;;9.00;99.90;;;;;;5011301;28;19905;-74
2024/04/05 03:44:46;;;;;;;0.45;0.20;;;9.00;99.90;;;;;;5009713;28;20494;-73
2024/04/05 03:47:13;;;;;;;0.30;0.20;;;9.00;99.90;;;;;;5026526;28;20040;-73
2024/04/05 03:49:38;;;;;;;0.20;0.15;;;9.00;99.90;;;;;;5012546;28;20411;-78
2024/04/05 03:52:04;;;;;;;;;;;8.90;99.90;;;;;;5015485;28;20510;-76
2024/04/05 03:54:30;;;;;;;0.98;0.20;;;8.90;99.90;;;;;;5029855;28;19909;-72
2024/04/05 03:56:56;;;;;;;;;;;8.80;99.90;;;;;;5013449;28;20022;-74
2024/04/05 03:59:21;;;;;;;1.42;0.20;;;8.80;99.90;;;;;;5017121;28;19917;-76
2024/04/05 04:01:53;;;;;;;;;;;8.80;99.90;;;;;;5015421;28;20030;-74
2024/04/05 04:04:19;;;;;;;1.33;0.40;;;8.80;99.90;;;;;;5011873;28;19909;-72
2024/04/05 04:06:45;;;;;;;0.52;0.30;;;8.80;99.90;;;;;;5011541;28;20379;-73
2024/04/05 04:09:17;;;;;;;;;;;8.70;99.90;;;;;;5011445;28;20029;-74
2024/04/05 04:11:43;;;;;;;0.68;0.25;;;8.70;99.90;;;;;;5025981;28;19913;-75
2024/04/05 04:14:09;;;;;;;0.47;0.20;;;8.60;99.90;;;;;;5009264;28;20018;-74
2024/04/05 04:16:35;;;;;;;;;;;8.60;99.90;;;;;;5010991;28;20105;-73
2024/04/05 04:19:01;;;;;;;0.95;0.30;;;8.50;99.90;;;;;;5025603;28;20028;-73
2024/04/05 04:21:27;;;;;;;;;;;8.50;99.90;;;;;;5010896;28;20026;-72
2024/04/05 04:23:53;;;;;;;0.35;0.20;;;8.50;99.90;;;;;;5025185;28;19964;-74
2024/04/05 04:26:20;;;;;;;0.55;0.20;;;8.40;99.90;;;;;;5010370;28;20037;-73
2024/04/05 04:28:47;;;;;;;0.45;0.20;;;8.40;99.90;;;;;;5010677;28;20037;-72
2024/04/05 04:31:23;;;;;;;0.50;0.10;;;8.40;99.90;;;;;;5010747;28;20041;-73
2024/04/05 04:33:50;;;;;;;0.65;0.20;;;8.40;99.90;;;;;;5025706;28;20148;-72
2024/04/05 04:36:18;;;;;;;0.40;0.10;;;8.40;99.90;;;;;;5010226;28;20136;-74
2024/04/05 04:38:45;;;;;;;3.15;0.28;;;8.40;99.90;;;;;;5009035;28;20034;-72
2024/04/05 04:41:12;;;;;;;0.40;0.20;;;8.50;99.90;;;;;;5010482;28;20041;-73
2024/04/05 04:43:42;;;;;;;1.33;0.30;;;8.50;99.90;;;;;;5008910;28;20465;-73
2024/04/05 04:46:11;;;;;;;1.05;0.30;;;8.60;99.90;;;;;;5010123;28;20041;-72
2024/04/05 04:48:38;;;;;;;0.52;0.20;;;8.70;99.90;;;;;;5008788;28;20761;-74
2024/04/05 04:51:04;;;;;;;1.13;0.30;;;8.90;99.90;;;;;;5010227;28;20045;-73
2024/04/05 04:53:30;;;;;;;0.28;0.20;;;9.10;99.90;;;;;;5010070;28;20080;-73
2024/04/05 04:55:55;;;;;;;;;;;9.40;99.90;;;;;;5010568;28;20435;-73
2024/04/05 04:58:23;;;;;;;1.33;0.30;;;9.80;99.90;;;;;;5025013;28;19912;-73
2024/04/05 05:00:49;;;;;;;1.20;0.30;;;10.30;99.90;;;;;;5009747;28;20551;-74
2024/04/05 05:03:15;;;;;;;2.58;1.30;;;10.80;99.90;;;;;;5009983;28;20490;-72
2024/04/05 05:05:41;;;;;;;;;;;11.10;99.90;;;;;;5010565;28;20037;-73
2024/04/05 05:08:11;;;;;;;2.95;0.82;;;11.20;99.90;;;;;;5009850;28;20421;-75
2024/04/05 05:10:38;;;;;;;3.10;0.50;;;11.10;99.90;;;;;;5009895;28;20022;-74
2024/04/05 05:13:09;;;;;;;1.45;0.60;;;11.10;99.90;;;;;;5009675;28;20030;-75
2024/04/05 05:15:35;;;;;;;2.65;1.63;;;11.00;99.90;;;;;;5009782;28;20041;-74
2024/04/05 05:18:00;;;;;;;;;;;10.80;99.90;;;;;;5025355;28;20034;-74
2024/04/05 05:20:29;;;;;;;3.45;1.15;;;11.00;99.90;;;;;;5009654;28;19924;-74
2024/04/05 05:22:55;;;;;;;2.38;1.05;;;11.50;99.90;;;;;;5002977;28;20034;-74
2024/04/05 05:25:21;;;;;;;3.63;1.33;;;12.00;99.90;;;;;;5010009;28;20029;-74
2024/04/05 05:27:47;;;;;;;;;;;12.40;99.90;;;;;;5009993;28;20786;-75
2024/04/05 05:30:15;;;;;;;5.43;2.70;;;13.10;99.90;;;;;;5008189;28;19999;-74
2024/04/05 05:32:41;;;;;;;9.18;2.38;;;13.50;99.90;;;;;;5008255;28;20018;-75
2024/04/05 05:35:07;;;;;;;4.20;1.17;;;13.60;99.90;;;;;;5009809;28;20479;-75
2024/04/05 05:37:33;;;;;;;2.85;1.48;;;13.70;99.90;;;;;;5013486;28;20127;-74
2024/04/05 05:39:59;;;;;;;6.65;2.80;;;14.00;99.90;;;;;;5013294;28;20038;-74
2024/04/05 05:42:27;;;;;;;13.95;6.95;;;14.60;99.90;;;;;;5028482;28;20442;-71
2024/04/05 05:44:54;;;;;;;8.90;4.45;;;15.40;99.90;;;;;;5013055;28;20034;-71
2024/04/05 05:47:20;;;;;;;7.90;1.98;;;15.90;99.90;;;;;;5011981;28;20212;-71
2024/04/05 05:49:46;;;;;;;4.03;1.55;;;15.90;99.90;;;;;;5011916;28;20121;-70
2024/04/05 05:52:11;;;;;;;12.15;6.95;;;15.90;99.90;;;;;;5013351;28;20022;-72
2024/04/05 05:54:37;;;;;;;18.27;9.55;;;15.90;99.90;;;;;;5011782;28;20045;-71
2024/04/05 05:57:03;;;;;;;15.57;9.13;;;16.00;99.90;;;;;;5013115;28;20533;-69
2024/04/05 05:59:30;;;;;;;20.17;9.40;;;16.40;99.90;;;;;;5028229;28;20029;-71
2024/04/05 06:01:56;;;;;;;14.98;7.70;;;16.90;99.90;;;;;;5013108;28;20026;-73
2024/04/05 06:04:22;;;;;;;10.60;6.63;;;17.30;99.90;;;;;;5012896;28;20026;-74
2024/04/05 06:06:49;;;;;;;6.50;4.32;;;17.70;99.90;;;;;;5011506;28;20486;-74
2024/04/05 06:09:16;;;;;;;5.38;3.20;;;18.10;99.90;;;;;;5013085;28;20525;-74
2024/04/05 06:11:42;;;;;;;8.43;4.40;;;18.50;99.90;;;;;;5012894;28;20033;-74
2024/04/05 06:14:08;;;;;;;5.50;2.67;;;18.80;99.60;;;;;;5011216;28;20038;-74
2024/04/05 06:16:34;;;;;;;5.97;2.40;;;19.00;98.30;;;;;;5013152;28;20026;-75
2024/04/05 06:18:59;;;;;;;6.38;2.42;;;19.30;97.00;;;;;;5011315;28;20060;-74
2024/04/05 06:21:25;;;;;;;4.18;1.27;;;19.60;96.20;;;;;;5012765;28;20042;-71
2024/04/05 06:23:51;;;;;;;1.75;0.68;;;19.80;96.20;;;;;;5012768;28;20022;-72
2024/04/05 06:26:16;;;;;;;1.77;0.30;;;20.10;96.00;;;;;;5012465;28;20034;-72
2024/04/05 06:28:42;;;;;;;1.48;0.47;;;20.30;95.00;;;;;;5012647;28;20037;-73
2024/04/05 06:31:08;;;;;;;1.15;0.32;;;20.50;94.20;;;;;;5012576;28;20105;-73
2024/04/05 06:33:34;;;;;;;0.93;0.50;;;20.90;92.70;;;;;;5027704;28;20045;-73
2024/04/05 06:36:00;;;;;;;0.38;0.20;;;21.00;92.80;;;;;;5011094;28;20025;-72
2024/04/05 06:38:26;;;;;;;0.68;0.30;;;21.30;91.40;;;;;;5012323;28;20459;-73
2024/04/05 06:40:59;;;;;;;1.15;0.60;;;21.50;90.60;;;;;;5010895;28;20034;-73
2024/04/05 06:43:30;;;;;;;1.02;0.40;;;21.90;88.70;;;;;;5027254;28;20034;-73
2024/04/05 06:46:00;;;;;;;0.80;0.30;;;21.90;87.70;;;;;;5012259;28;20661;-73
2024/04/05 06:48:27;;;;;;;0.93;0.55;;;22.00;86.70;;;;;;5009942;28;20129;-72
2024/04/05 06:50:53;;;;;;;1.02;0.22;;;22.10;85.60;;;;;;5012054;28;20029;-72
2024/04/05 06:53:27;;;;;;;1.42;0.30;;;22.20;84.80;;;;;;5027444;28;20030;-73
2024/04/05 06:55:53;;;;;;;0.52;0.30;;;22.30;83.40;;;;;;5010900;28;20407;-73
2024/04/05 06:58:19;;;;;;;1.00;0.40;;;22.50;81.70;;;;;;5012169;28;20076;-72
2024/04/05 07:00:45;;;;;;;4.18;0.30;;;22.70;81.30;;;;;;5010651;28;20060;-72
2024/04/05 07:03:12;;;;;;;0.70;0.40;;;23.00;78.20;;;;;;5011955;28;20492;-72
2024/04/05 07:05:38;;;;;;;1.15;0.40;;;23.00;79.60;;;;;;5012224;28;20111;-73
2024/04/05 07:08:05;;;;;;;3.10;0.40;;;23.20;77.20;;;;;;5010716;28;20133;-75
2024/04/05 07:10:32;;;;;;;0.75;0.55;;;23.50;75.50;;;;;;5010721;28;20018;-72
2024/04/05 07:12:59;;;;;;;2.20;0.75;;;23.70;74.20;;;;;;5010626;28;20124;-73
2024/04/05 07:15:25;;;;;;;2.55;0.80;;;23.80;73.20;;;;;;5011834;28;20073;-73
2024/04/05 07:17:52;;;;;;;1.42;0.63;;;23.70;73.20;;;;;;5027294;28;20034;-73
2024/04/05 07:20:24;;;;;;;2.13;0.40;;;23.70;72.30;;;;;;5010405;28;20510;-73
2024/04/05 07:22:53;;;;;;;1.23;0.40;;;23.70;69.70;;;;;;5011536;28;20511;-73
2024/04/05 07:25:23;;;;;;;1.85;0.50;;;23.90;70.50;;;;;;5011492;28;20025;-73
2024/04/05 07:27:54;;;;;;;2.10;0.50;;;24.10;69.20;;;;;;5010156;28;20048;-73
2024/04/05 07:30:23;;;;;;;3.30;0.70;;;24.30;67.40;;;;;;5011451;28;20025;-74
2024/04/05 07:32:50;;;;;;;2.38;0.60;;;24.20;68.90;;;;;;5013996;28;20037;-74
2024/04/05 07:35:16;;;;;;;2.13;0.63;;;24.60;67.90;;;;;;5010449;28;20059;-74
2024/04/05 07:37:46;;;;;;;1.95;0.70;;;24.70;67.20;;;;;;5008606;28;20053;-73
2024/04/05 07:40:11;;;;;;;1.23;0.43;;;24.60;67.80;;;;;;5011090;28;20438;-74
2024/04/05 07:42:37;;;;;;;2.00;0.57;;;24.90;66.30;;;;;;5011141;28;20022;-73
2024/04/05 07:45:03;;;;;;;1.35;0.40;;;25.60;63.40;;;;;;5010981;28;20037;-73
2024/04/05 07:47:30;;;;;;;3.05;0.50;;;26.10;61.30;;;;;;5011100;28;20018;-73
2024/04/05 07:49:55;;;;;;;3.05;0.52;;;26.40;58.60;;;;;;5011144;28;20062;-73
2024/04/05 07:52:21;;;;;;;2.00;0.50;;;26.60;57.70;;;;;;5011110;28;20072;-74
2024/04/05 07:54:47;;;;;;;2.28;0.50;;;26.60;58.40;;;;;;5010287;28;20036;-73
2024/04/05 07:57:13;;;;;;;2.63;0.60;;;26.70;57.40;;;;;;5009955;28;20506;-73
2024/04/05 07:59:39;;;;;;;1.83;0.45;;;26.70;55.00;;;;;;5008435;28;20057;-74
2024/04/05 08:02:06;;;;;;;2.20;0.73;;;26.80;54.60;;;;;;5010950;28;20392;-73
2024/04/05 08:04:32;;;;;;;1.42;0.70;;;26.80;53.10;;;;;;5026219;28;20030;-74
2024/04/05 08:06:58;;;;;;;2.40;0.40;;;26.60;53.20;;;;;;5009497;28;20060;-74
2024/04/05 08:09:24;;;;;;;2.15;0.45;;;26.70;53.40;;;;;;5010714;28;20479;-73
2024/04/05 08:11:51;;;;;;;1.27;0.45;;;27.00;52.00;;;;;;5008998;28;20076;-73
2024/04/05 08:14:16;;;;;;;4.18;0.50;;;27.60;49.60;;;;;;5010408;28;20119;-74
2024/04/05 08:16:42;;;;;;;1.17;0.40;;;27.90;46.60;;;;;;5010608;28;20487;-73
2024/04/05 08:19:08;;;;;;;0.43;0.30;;;27.50;46.00;;;;;;5010507;28;20053;-74
2024/04/05 08:21:33;;;;;;;1.13;0.40;;;27.50;45.70;;;;;;5025792;28;20030;-73
2024/04/05 08:23:59;;;;;;;1.67;0.40;;;27.80;44.60;;;;;;5010664;28;20562;-73
2024/04/05 08:26:25;;;;;;;2.22;0.40;;;27.70;45.30;;;;;;5009098;28;20069;-74
2024/04/05 08:28:52;;;;;;;0.88;0.32;;;28.00;44.20;;;;;;5025752;28;20075;-74
2024/04/05 08:31:18;;;;;;;5.00;0.43;;;28.00;44.00;;;;;;5010202;28;20030;-72
2024/04/05 08:33:44;;;;;;;1.05;0.30;;;27.90;42.70;;;;;;5010298;28;20025;-73
2024/04/05 08:36:10;;;;;;;5.65;0.60;;;28.10;42.60;;;;;;5025649;28;20041;-72
2024/04/05 08:38:36;;;;;;;1.48;0.30;;;28.20;41.70;;;;;;5009057;28;20022;-74
2024/04/05 08:41:10;;;;;;;1.38;0.50;;;28.40;41.50;;;;;;5010098;28;20491;-73
2024/04/05 08:43:43;;;;;;;2.85;0.30;;;28.70;39.40;;;;;;5004488;28;20573;-73
2024/04/05 08:46:09;;;;;;;3.22;0.50;;;28.60;38.40;;;;;;5009899;28;20073;-74
2024/04/05 08:48:35;;;;;;;1.75;0.47;;;28.30;39.50;;;;;;5024972;28;20041;-74
2024/04/05 08:51:03;;;;;;;4.10;0.80;;;28.30;38.50;;;;;;5010050;28;20026;-73
2024/04/05 08:53:29;;;;;;;1.27;0.52;;;28.30;38.30;;;;;;5009884;28;20403;-74
2024/04/05 08:55:59;;;;;;;2.33;0.38;;;28.10;38.50;;;;;;5025054;28;20038;-73
2024/04/05 08:58:26;;;;;;;5.53;0.55;;;28.00;38.10;;;;;;5010084;28;20037;-73
2024/04/05 09:00:53;;;;;;;6.30;1.15;;;27.60;38.70;;;;;;5025093;28;20119;-73
2024/04/05 09:03:19;;;;;;;3.00;0.77;;;27.60;39.50;;;;;;5008615;28;20520;-73
2024/04/05 09:05:44;;;;;;;2.58;0.60;;;27.30;40.30;;;;;;5010204;28;20132;-74
2024/04/05 09:08:11;;;;;;;2.08;0.40;;;27.20;40.10;;;;;;5009939;28;20038;-73
2024/04/05 09:10:36;;;;;;;1.23;0.40;;;27.30;39.00;;;;;;5024510;28;20124;-73
2024/04/05 09:13:04;;;;;;;1.20;0.30;;;27.20;38.70;;;;;;5009447;28;20112;-74
2024/04/05 09:15:31;;;;;;;0.57;0.30;;;27.10;39.20;;;;;;5009663;28;20030;-73
2024/04/05 09:17:57;;;;;;;1.77;0.50;;;26.70;38.30;;;;;;5024872;28;20421;-74
2024/04/05 09:20:29;;;;;;;3.08;0.50;;;26.20;40.00;;;;;;5009635;28;20041;-74
2024/04/05 09:23:03;;;;;;;1.08;0.50;;;26.10;41.40;;;;;;5008428;28;20046;-72
2024/04/05 09:25:30;;;;;;;2.15;0.50;;;26.10;43.20;;;;;;5008356;28;20025;-73
2024/04/05 09:28:06;;;;;;;1.65;0.57;;;26.40;41.30;;;;;;5009707;28;20022;-73
2024/04/05 09:30:32;;;;;;;1.20;0.50;;;26.60;39.30;;;;;;5009819;28;20030;-74
2024/04/05 09:32:57;;;;;;;2.28;0.60;;;26.50;39.80;;;;;;5009210;28;20030;-73
2024/04/05 09:35:26;;;;;;;1.55;0.40;;;26.50;39.90;;;;;;5009481;28;20036;-73
2024/04/05 09:37:54;;;;;;;2.30;0.50;;;26.60;40.20;;;;;;5009673;28;20041;-73
2024/04/05 09:40:23;;;;;;;0.80;0.40;;;26.80;39.80;;;;;;5008148;28;20037;-74
2024/04/05 09:42:52;;;;;;;2.45;0.60;;;27.10;38.70;;;;;;5009493;28;20022;-73
2024/04/05 09:45:25;;;;;;;3.70;0.63;;;27.30;39.20;;;;;;4998638;28;20033;-73
2024/04/05 09:47:52;;;;;;;2.35;0.47;;;27.40;40.20;;;;;;5008280;28;20116;-74
2024/04/05 09:50:21;;;;;;;2.45;0.70;;;27.50;40.20;;;;;;5009459;28;20033;-74
2024/04/05 09:52:52;;;;;;;1.83;0.50;;;27.70;40.10;;;;;;5009499;28;20100;-73
2024/04/05 09:55:23;;;;;;;1.35;0.50;;;27.60;39.80;;;;;;5009381;28;20042;-74
2024/04/05 09:57:49;;;;;;;4.95;0.52;;;27.90;39.40;;;;;;5009201;28;20026;-74
2024/04/05 10:00:20;;;;;;;2.15;0.57;;;28.20;38.60;;;;;;5009313;28;20033;-72
2024/04/05 10:02:50;;;;;;;3.05;0.60;;;27.80;38.90;;;;;;5007947;28;20033;-73
2024/04/05 10:05:29;;;;;;;1.88;0.50;;;27.20;40.10;;;;;;5008035;28;20033;-73
2024/04/05 10:07:56;;;;;;;3.42;0.65;;;26.10;41.30;;;;;;5007817;28;20776;-73
2024/04/05 10:10:34;;;;;;;2.67;0.77;;;25.40;42.30;;;;;;5009326;28;20030;-70
2024/04/05 10:13:16;;;;;;;5.35;0.45;;;24.90;44.30;;;;;;5007677;28;20167;-72
2024/04/05 10:15:56;;;;;;;5.35;0.60;;;24.90;46.30;;;;;;5009214;28;20605;-73
2024/04/05 10:18:34;;;;;;;2.42;0.50;;;24.90;45.90;;;;;;5007833;28;20054;-73
2024/04/05 10:21:08;;;;;;;3.10;0.57;;;25.00;43.70;;;;;;5008998;28;20100;-72
2024/04/05 10:23:37;;;;;;;2.35;0.47;;;25.00;43.50;;;;;;5026657;28;20026;-73
2024/04/05 10:26:07;;;;;;;1.55;0.50;;;25.40;45.10;;;;;;5011256;28;20514;-73
2024/04/05 10:28:33;;;;;;;2.15;0.40;;;26.00;44.40;;;;;;5012534;28;20053;-73
2024/04/05 10:31:01;;;;;;;4.15;0.90;;;26.40;42.50;;;;;;5012357;28;20446;-73
2024/04/05 10:33:27;;;;;;;1.50;0.40;;;26.80;41.00;;;;;;5011227;28;20498;-73
2024/04/05 10:35:57;;;;;;;1.70;0.40;;;26.80;40.70;;;;;;5027879;28;20026;-72
2024/04/05 10:38:23;;;;;;;3.10;0.50;;;26.70;39.90;;;;;;5010952;28;20411;-72
2024/04/05 10:40:59;;;;;;;7.40;0.60;;;26.20;41.20;;;;;;5011069;28;20030;-74
2024/04/05 10:43:26;;;;;;;4.88;0.60;;;25.80;42.60;;;;;;5011265;28;20030;-72
2024/04/05 10:45:54;;;;;;;1.50;0.30;;;25.20;42.60;;;;;;5012522;28;20058;-72
2024/04/05 10:48:21;;;;;;;2.83;0.40;;;24.80;42.80;;;;;;5011407;28;20028;-72
2024/04/05 10:50:48;;;;;;;2.50;0.50;;;24.40;44.80;;;;;;5012637;28;20026;-72
2024/04/05 10:53:18;;;;;;;2.25;0.40;;;24.20;44.80;;;;;;5012431;28;20022;-72
2024/04/05 10:55:44;;;;;;;1.70;0.52;;;24.00;45.90;;;;;;5027652;28;20069;-73
2024/04/05 10:58:11;;;;;;;4.32;0.50;;;23.70;46.00;;;;;;5010906;28;20129;-72
2024/04/05 11:00:37;;;;;;;3.90;0.68;;;23.50;46.10;;;;;;5026833;28;20048;-73
2024/04/05 11:03:04;;;;;;;2.63;0.57;;;23.40;46.90;;;;;;5011430;28;20402;-73
2024/04/05 11:05:30;;;;;;;1.95;0.38;;;23.20;48.20;;;;;;5010714;28;20411;-73
2024/04/05 11:08:00;;;;;;;4.30;0.50;;;23.00;49.10;;;;;;5027162;28;20471;-74
2024/04/05 11:10:34;;;;;;;1.63;0.60;;;22.80;49.80;;;;;;5027235;28;20040;-73
2024/04/05 11:13:01;;;;;;;1.92;0.65;;;22.60;50.00;;;;;;5011891;28;20041;-72
2024/04/05 11:15:27;;;;;;;1.98;0.60;;;22.50;51.10;;;;;;5011944;28;20028;-73
2024/04/05 11:18:05;;;;;;;3.97;0.55;;;22.50;52.90;;;;;;5027321;28;20515;-72
2024/04/05 11:20:32;;;;;;;2.38;0.30;;;22.30;52.60;;;;;;5011613;28;20048;-73
2024/04/05 11:23:02;;;;;;;5.80;0.63;;;22.40;52.60;;;;;;5011751;28;20545;-72
2024/04/05 11:25:29;;;;;;;2.17;0.50;;;22.40;52.60;;;;;;5011546;28;20030;-73
2024/04/05 11:27:55;;;;;;;6.22;0.55;;;22.40;53.20;;;;;;5011569;28;20052;-73
2024/04/05 11:30:21;;;;;;;3.70;0.40;;;22.40;52.90;;;;;;5011834;28;20049;-72
2024/04/05 11:32:47;;;;;;;5.85;1.48;;;22.40;53.20;;;;;;5009602;28;20036;-73
2024/04/05 11:35:12;;;;;;;2.10;0.60;;;22.40;55.70;;;;;;5011240;28;20121;-73
2024/04/05 11:37:46;;;;;;;4.53;0.60;;;22.40;56.40;;;;;;5011323;28;20022;-71
2024/04/05 11:40:14;;;;;;;2.42;0.60;;;22.40;55.80;;;;;;5026110;28;20049;-73
2024/04/05 11:42:41;;;;;;;2.72;0.45;;;22.40;54.20;;;;;;5009697;28;20033;-72
2024/04/05 11:45:07;;;;;;;2.25;0.50;;;22.30;53.70;;;;;;5011231;28;20033;-72
2024/04/05 11:47:33;;;;;;;2.05;0.47;;;22.10;52.10;;;;;;5011115;28;20022;-72
2024/04/05 11:50:00;;;;;;;1.85;0.40;;;21.70;53.50;;;;;;5011030;28;20025;-72
2024/04/05 11:52:31;;;;;;;2.10;0.40;;;21.60;54.30;;;;;;5010833;28;20026;-73
2024/04/05 11:54:58;;;;;;;3.30;0.40;;;21.50;55.50;;;;;;5010736;28;20045;-73
2024/04/05 11:57:24;;;;;;;4.90;0.50;;;21.40;55.50;;;;;;5009361;28;20026;-73
2024/04/05 11:59:49;;;;;;;2.45;0.50;;;21.30;56.00;;;;;;5025745;28;20048;-73
2024/04/05 12:02:15;;;;;;;4.93;0.90;;;21.30;56.30;;;;;;5010793;28;20030;-72
2024/04/05 12:04:41;;;;;;;5.35;0.55;;;21.30;56.00;;;;;;5011272;28;20069;-72
2024/04/05 12:07:09;;;;;;;4.93;0.63;;;21.20;55.70;;;;;;5010941;28;20068;-72
2024/04/05 12:09:36;;;;;;;4.03;0.50;;;21.10;56.30;;;;;;5010477;28;20044;-72
2024/04/05 12:12:04;;;;;;;2.67;0.57;;;21.10;57.60;;;;;;5010794;28;20537;-73
2024/04/05 12:14:32;;;;;;;2.97;0.85;;;21.30;57.30;;;;;;5025872;28;20030;-72
2024/04/05 12:17:02;;;;;;;4.03;0.80;;;21.50;57.60;;;;;;5010625;28;20014;-73
2024/04/05 12:19:28;;;;;;;0.82;0.40;;;21.70;56.20;;;;;;5008973;28;20046;-72
2024/04/05 12:21:54;;;;;;;3.85;0.60;;;21.90;56.90;;;;;;5009500;28;20521;-72
2024/04/05 12:24:20;;;;;;;4.50;0.65;;;21.90;55.40;;;;;;5010726;28;20085;-72
2024/04/05 12:26:46;;;;;;;2.33;0.63;;;22.00;56.50;;;;;;5010608;28;20069;-72
2024/04/05 12:29:12;;;;;;;2.25;0.40;;;22.10;54.90;;;;;;5010209;28;20442;-73
2024/04/05 12:31:38;;;;;;;2.80;0.60;;;22.10;54.10;;;;;;5010318;28;20026;-72
2024/04/05 12:34:04;;;;;;;1.77;0.57;;;22.00;55.20;;;;;;5008779;28;20683;-74
2024/04/05 12:36:31;;;;;;;3.00;0.55;;;22.00;55.00;;;;;;5008910;28;20040;-72
2024/04/05 12:38:57;;;;;;;1.10;0.30;;;22.00;54.60;;;;;;5025547;28;20025;-73
2024/04/05 12:41:26;;;;;;;4.75;1.00;;;22.10;55.20;;;;;;5025910;28;20045;-72
2024/04/05 12:43:52;;;;;;;1.40;0.45;;;22.10;56.00;;;;;;5010447;28;20022;-70
2024/04/05 12:46:20;;;;;;;2.72;0.63;;;21.90;56.40;;;;;;5008226;28;20044;-72
2024/04/05 12:48:46;;;;;;;9.65;0.90;;;22.00;56.10;;;;;;5008852;28;20032;-73
2024/04/05 12:51:11;;;;;;;3.30;0.93;;;21.90;57.20;;;;;;5008895;28;20033;-73
2024/04/05 12:53:37;;;;;;;2.05;0.50;;;22.10;54.80;;;;;;5025024;28;20403;-73
2024/04/05 12:56:05;;;;;;;1.35;0.32;;;22.10;54.30;;;;;;5010003;28;20022;-72
2024/04/05 12:58:36;;;;;;;1.33;0.40;;;22.20;54.20;;;;;;5009826;28;20072;-73